createdAt,value
2018-11-13T00:01:08.040Z,20.51
2018-11-13T00:03:38.633Z,20.54
2018-11-13T00:06:06.232Z,20.55
2018-11-13T00:08:33.690Z,20.48
2018-11-13T00:11:01.211Z,20.43
2018-11-13T00:13:28.730Z,20.47
2018-11-13T00:15:57.482Z,20.53
2018-11-13T00:18:25.170Z,20.55
2018-11-13T00:20:52.790Z,20.57
2018-11-13T00:23:20.284Z,20.56
2018-11-13T00:25:47.844Z,20.58
2018-11-13T00:28:17.480Z,20.59
2018-11-13T00:30:44.973Z,20.56
2018-11-13T00:33:12.525Z,20.55
2018-11-13T00:35:40.230Z,20.53
2018-11-13T00:38:07.810Z,20.56
2018-11-13T00:40:36.385Z,20.56
2018-11-13T00:43:03.897Z,20.54
2018-11-13T00:45:31.547Z,20.48
2018-11-13T00:47:59.021Z,20.49
2018-11-13T00:50:27.119Z,20.22
2018-11-13T00:52:56.545Z,19.82
2018-11-13T00:55:24.211Z,19.81
2018-11-13T00:57:51.865Z,19.67
2018-11-13T01:00:20.482Z,19.83
2018-11-13T01:02:47.927Z,19.86
2018-11-13T01:05:18.061Z,19.73
2018-11-13T01:07:46.621Z,19.80
2018-11-13T01:10:15.200Z,19.89
2018-11-13T01:12:45.229Z,20.00
2018-11-13T01:15:13.760Z,19.80
2018-11-13T01:17:44.029Z,19.94
2018-11-13T01:20:11.752Z,20.02
2018-11-13T01:22:39.330Z,20.07
2018-11-13T01:25:07.999Z,20.07
2018-11-13T01:27:35.781Z,20.12
2018-11-13T01:30:05.726Z,20.09
2018-11-13T01:32:33.240Z,20.18
2018-11-13T01:35:00.846Z,20.03
2018-11-13T01:37:28.400Z,20.15
2018-11-13T01:39:55.894Z,20.22
2018-11-13T01:42:25.674Z,20.09
2018-11-13T01:44:53.290Z,20.02
2018-11-13T01:47:20.858Z,20.10
2018-11-13T01:49:49.381Z,20.15
2018-11-13T01:52:16.874Z,20.17
2018-11-13T01:54:45.423Z,20.14
2018-11-13T01:57:13.437Z,20.00
2018-11-13T01:59:40.582Z,20.18
2018-11-13T02:02:08.102Z,20.21
2018-11-13T02:04:35.665Z,20.03
2018-11-13T02:07:05.580Z,20.11
2018-11-13T02:09:33.066Z,19.90
2018-11-13T02:12:01.898Z,20.09
2018-11-13T02:14:29.390Z,20.15
2018-11-13T02:16:56.891Z,20.24
2018-11-13T02:19:25.313Z,20.09
2018-11-13T02:21:52.860Z,20.20
2018-11-13T02:24:20.355Z,19.97
2018-11-13T02:26:47.874Z,20.06
2018-11-13T02:29:15.433Z,19.63
2018-11-13T02:31:45.188Z,19.70
2018-11-13T02:34:14.043Z,19.82
2018-11-13T02:36:41.557Z,19.77
2018-11-13T02:39:09.882Z,19.96
2018-11-13T02:41:37.465Z,19.90
2018-11-13T02:44:05.974Z,19.94
2018-11-13T02:46:33.627Z,19.83
2018-11-13T02:49:01.189Z,19.91
2018-11-13T02:51:28.851Z,19.99
2018-11-13T02:53:56.312Z,20.12
2018-11-13T02:56:25.361Z,19.92
2018-11-13T02:58:52.839Z,20.01
2018-11-13T03:01:20.258Z,20.07
2018-11-13T03:03:47.733Z,19.65
2018-11-13T03:06:15.194Z,19.73
2018-11-13T03:08:43.974Z,19.83
2018-11-13T03:11:12.515Z,19.94
2018-11-13T03:13:40.187Z,20.07
2018-11-13T03:16:07.748Z,19.81
2018-11-13T03:18:35.303Z,19.94
2018-11-13T03:21:04.301Z,19.81
2018-11-13T03:23:31.840Z,19.04
2018-11-13T03:25:59.297Z,19.24
2018-11-13T03:28:26.811Z,19.18
2018-11-13T03:30:54.370Z,19.42
2018-11-13T03:33:23.804Z,19.00
2018-11-13T03:35:51.261Z,19.17
2018-11-13T03:38:18.720Z,19.07
2018-11-13T03:40:46.281Z,19.38
2018-11-13T03:43:13.741Z,19.51
2018-11-13T03:45:42.635Z,19.66
2018-11-13T03:48:10.164Z,19.68
2018-11-13T03:50:37.650Z,19.61
2018-11-13T03:53:05.108Z,19.54
2018-11-13T03:55:32.621Z,19.75
2018-11-13T03:58:01.065Z,19.46
2018-11-13T04:00:28.646Z,19.54
2018-11-13T04:02:56.129Z,19.32
2018-11-13T04:05:23.599Z,19.35
2018-11-13T04:07:53.035Z,18.74
2018-11-13T04:10:24.750Z,18.57
2018-11-13T04:12:52.325Z,18.97
2018-11-13T04:15:23.700Z,19.11
2018-11-13T04:17:51.343Z,19.40
2018-11-13T04:21:54.051Z,19.44
2018-11-13T04:24:21.612Z,19.17
2018-11-13T04:26:49.073Z,19.07
2018-11-13T04:29:16.527Z,18.92
2018-11-13T04:31:44.613Z,18.99
2018-11-13T04:34:13.941Z,19.37
2018-11-13T04:36:41.470Z,19.54
2018-11-13T04:39:09.145Z,19.55
2018-11-13T04:41:36.664Z,19.10
2018-11-13T04:44:04.289Z,19.52
2018-11-13T04:46:32.974Z,17.41
2018-11-13T04:49:00.493Z,18.06
2018-11-13T04:51:27.979Z,18.22
2018-11-13T04:53:55.577Z,18.59
2018-11-13T04:56:23.046Z,18.44
2018-11-13T04:58:52.696Z,18.50
2018-11-13T05:01:20.267Z,18.78
2018-11-13T05:03:47.734Z,18.74
2018-11-13T05:06:15.176Z,18.65
2018-11-13T05:08:42.937Z,18.01
2018-11-13T05:11:11.734Z,18.30
2018-11-13T05:13:39.358Z,18.38
2018-11-13T05:16:06.937Z,18.83
2018-11-13T05:18:34.569Z,18.94
2018-11-13T05:21:02.021Z,19.21
2018-11-13T05:23:32.318Z,19.15
2018-11-13T05:26:00.016Z,19.01
2018-11-13T05:28:27.525Z,19.02
2018-11-13T05:30:55.098Z,18.65
2018-11-13T05:33:22.766Z,18.74
2018-11-13T05:35:51.498Z,19.01
2018-11-13T05:38:19.002Z,18.81
2018-11-13T05:40:46.464Z,19.12
2018-11-13T05:43:14.065Z,18.94
2018-11-13T05:45:42.149Z,18.45
2018-11-13T05:48:10.966Z,18.36
2018-11-13T05:50:38.512Z,18.47
2018-11-13T05:53:06.293Z,18.02
2018-11-13T05:55:33.837Z,18.63
2018-11-13T05:58:01.305Z,18.70
2018-11-13T06:00:30.640Z,18.74
2018-11-13T06:02:58.444Z,18.72
2018-11-13T06:05:25.931Z,18.86
2018-11-13T06:07:53.420Z,17.47
2018-11-13T06:10:21.001Z,18.47
2018-11-13T06:12:50.743Z,19.01
2018-11-13T06:15:18.337Z,18.59
2018-11-13T06:17:45.893Z,18.82
2018-11-13T06:20:14.564Z,18.91
2018-11-13T06:25:36.232Z,19.33
2018-11-13T06:28:03.750Z,19.09
2018-11-13T06:30:31.430Z,19.35
2018-11-13T06:32:59.196Z,18.61
2018-11-13T06:35:27.136Z,18.91
2018-11-13T06:37:55.502Z,19.13
2018-11-13T06:40:24.193Z,19.22
2018-11-13T06:42:51.655Z,18.67
2018-11-13T06:45:20.682Z,18.41
2018-11-13T06:47:48.823Z,17.86
2018-11-13T06:50:17.813Z,18.29
2018-11-13T06:52:46.272Z,18.43
2018-11-13T06:55:35.064Z,18.57
2018-11-13T06:58:03.165Z,18.59
2018-11-13T07:00:31.721Z,18.65
2018-11-13T07:02:59.426Z,18.96
2018-11-13T07:05:26.987Z,18.53
2018-11-13T07:07:54.540Z,18.84
2018-11-13T07:10:24.354Z,18.84
2018-11-13T07:12:55.396Z,19.17
2018-11-13T07:15:24.079Z,19.43
2018-11-13T07:17:53.028Z,19.27
2018-11-13T07:20:21.761Z,18.66
2018-11-13T07:22:49.323Z,18.85
2018-11-13T07:25:17.980Z,18.28
2018-11-13T07:27:45.750Z,18.64
2018-11-13T07:30:14.566Z,19.03
2018-11-13T07:32:42.541Z,19.22
2018-11-13T07:35:11.738Z,19.44
2018-11-13T07:37:43.321Z,19.49
2018-11-13T07:40:10.967Z,19.63
2018-11-13T07:42:38.446Z,18.05
2018-11-13T07:45:08.257Z,18.40
2018-11-13T07:47:36.053Z,18.93
2018-11-13T07:50:05.290Z,18.18
2018-11-13T07:52:32.953Z,18.71
2018-11-13T07:55:00.546Z,18.92
2018-11-13T07:57:28.108Z,17.64
2018-11-13T07:59:55.634Z,18.49
2018-11-13T08:02:24.558Z,18.05
2018-11-13T08:04:52.094Z,18.85
2018-11-13T08:07:19.658Z,19.10
2018-11-13T08:09:48.441Z,19.30
2018-11-13T08:12:16.713Z,19.66
2018-11-13T08:14:45.430Z,19.51
2018-11-13T08:17:13.017Z,19.46
2018-11-13T08:19:40.544Z,18.69
2018-11-13T08:22:08.159Z,18.66
2018-11-13T08:24:35.763Z,19.11
2018-11-13T08:27:04.335Z,18.80
2018-11-13T08:29:31.931Z,19.40
2018-11-13T08:31:59.589Z,18.69
2018-11-13T08:34:27.149Z,19.23
2018-11-13T08:36:54.847Z,19.52
2018-11-13T08:39:23.278Z,19.63
2018-11-13T08:41:50.771Z,19.93
2018-11-13T08:44:18.784Z,20.08
2018-11-13T08:46:47.976Z,20.05
2018-11-13T08:49:15.519Z,19.00
2018-11-13T08:51:44.557Z,18.82
2018-11-13T08:54:12.178Z,18.48
2018-11-13T08:56:39.678Z,18.58
2018-11-13T08:59:07.215Z,17.89
2018-11-13T09:01:34.630Z,18.17
2018-11-13T09:04:03.173Z,17.78
2018-11-13T09:06:31.020Z,18.55
2018-11-13T09:08:58.742Z,18.07
2018-11-13T09:11:26.435Z,18.35
2018-11-13T09:13:54.051Z,18.05
2018-11-13T09:16:23.209Z,18.29
2018-11-13T09:18:50.812Z,18.69
2018-11-13T09:21:18.738Z,18.42
2018-11-13T09:23:47.335Z,18.62
2018-11-13T09:26:14.900Z,18.66
2018-11-13T09:28:43.599Z,16.13
2018-11-13T09:31:11.233Z,16.82
2018-11-13T09:33:39.242Z,17.49
2018-11-13T09:36:06.697Z,16.92
2018-11-13T09:38:34.206Z,17.30
2018-11-13T09:41:03.285Z,17.72
2018-11-13T09:43:30.813Z,18.33
2018-11-13T09:45:59.678Z,17.81
2018-11-13T09:48:28.253Z,17.83
2018-11-13T09:50:55.813Z,18.34
2018-11-13T09:53:25.093Z,17.44
2018-11-13T09:55:54.209Z,17.57
2018-11-13T09:58:21.829Z,16.81
2018-11-13T10:00:49.484Z,16.27
2018-11-13T10:03:17.289Z,16.28
2018-11-13T10:05:46.195Z,17.59
2018-11-13T10:08:14.468Z,18.20
2018-11-13T10:10:43.427Z,18.39
2018-11-13T10:13:10.923Z,18.21
2018-11-13T10:15:38.461Z,18.25
2018-11-13T10:18:06.653Z,17.25
2018-11-13T10:20:34.480Z,16.85
2018-11-13T10:23:03.254Z,16.78
2018-11-13T10:25:30.703Z,17.95
2018-11-13T10:27:58.176Z,17.97
2018-11-13T10:30:27.526Z,18.01
2018-11-13T10:32:55.799Z,17.58
2018-11-13T10:35:25.242Z,17.76
2018-11-13T10:37:53.083Z,16.81
2018-11-13T10:40:21.414Z,18.02
2018-11-13T10:42:49.818Z,17.56
2018-11-13T10:45:20.429Z,18.31
2018-11-13T10:47:47.941Z,18.64
2018-11-13T10:50:18.151Z,18.76
2018-11-13T10:52:45.670Z,18.98
2018-11-13T10:55:14.354Z,19.71
2018-11-13T10:57:42.700Z,18.62
2018-11-13T11:00:17.489Z,18.90
2018-11-13T11:02:50.562Z,20.03
2018-11-13T11:05:18.529Z,18.78
2018-11-13T11:07:46.598Z,19.22
2018-11-13T11:10:14.058Z,17.62
2018-11-13T11:12:42.038Z,17.02
2018-11-13T11:15:09.628Z,17.18
2018-11-13T11:17:38.028Z,17.98
2018-11-13T11:20:08.134Z,18.75
2018-11-13T11:22:35.716Z,19.65
2018-11-13T11:25:03.381Z,19.23
2018-11-13T11:27:30.880Z,18.99
2018-11-13T11:29:58.906Z,18.66
2018-11-13T11:32:26.957Z,17.27
2018-11-13T11:34:55.769Z,17.88
2018-11-13T11:37:23.232Z,17.77
2018-11-13T11:39:50.767Z,17.33
2018-11-13T11:42:19.149Z,17.47
2018-11-13T11:44:47.010Z,17.84
2018-11-13T11:47:14.640Z,17.88
2018-11-13T11:49:42.195Z,17.28
2018-11-13T11:52:09.690Z,17.55
2018-11-13T11:54:37.733Z,18.23
2018-11-13T11:57:06.809Z,18.61
2018-11-13T11:59:34.274Z,19.35
2018-11-13T12:02:01.850Z,18.30
2018-11-13T12:04:29.437Z,19.12
2018-11-13T12:06:58.123Z,19.83
2018-11-13T12:09:26.124Z,19.89
2018-11-13T12:11:53.590Z,20.65
2018-11-13T12:14:21.085Z,19.11
2018-11-13T12:16:48.609Z,19.99
2018-11-13T12:19:17.353Z,19.86
2018-11-13T12:21:45.413Z,21.00
2018-11-13T12:24:12.926Z,22.14
2018-11-13T12:26:42.031Z,21.56
2018-11-13T12:29:07.976Z,21.50
2018-11-13T12:31:36.759Z,20.88
2018-11-13T12:34:04.874Z,21.68
2018-11-13T12:36:32.563Z,21.87
2018-11-13T12:39:00.062Z,21.93
2018-11-13T12:41:27.615Z,21.27
2018-11-13T12:43:55.640Z,21.30
2018-11-13T12:46:23.639Z,21.40
2018-11-13T12:48:51.167Z,21.82
2018-11-13T12:51:24.259Z,20.01
2018-11-13T12:53:52.758Z,19.61
2018-11-13T12:56:21.614Z,18.72
2018-11-13T12:58:49.661Z,19.67
2018-11-13T13:01:17.170Z,19.34
2018-11-13T13:03:44.872Z,20.40
2018-11-13T13:06:12.590Z,20.95
2018-11-13T13:08:40.935Z,20.95
2018-11-13T13:11:08.942Z,21.53
2018-11-13T13:13:36.658Z,20.90
2018-11-13T13:16:05.882Z,20.55
2018-11-13T13:18:33.456Z,20.40
2018-11-13T13:21:02.409Z,20.31
2018-11-13T13:23:30.629Z,18.92
2018-11-13T13:25:58.255Z,19.28
2018-11-13T13:28:25.777Z,19.71
2018-11-13T13:30:53.482Z,19.55
2018-11-13T13:33:21.594Z,20.11
2018-11-13T13:35:59.920Z,20.04
2018-11-13T13:38:27.699Z,19.07
2018-11-13T13:40:56.583Z,19.60
2018-11-13T13:43:26.375Z,19.77
2018-11-13T13:45:54.353Z,19.56
2018-11-13T13:48:22.335Z,20.24
2018-11-13T13:50:51.203Z,20.72
2018-11-13T13:53:19.582Z,20.95
2018-11-13T13:55:48.270Z,20.52
2018-11-13T13:58:16.823Z,20.60
2018-11-13T14:00:44.940Z,21.01
2018-11-13T14:03:12.974Z,20.66
2018-11-13T14:05:42.757Z,20.33
2018-11-13T14:08:13.615Z,19.36
2018-11-13T14:11:05.599Z,19.61
2018-11-13T14:13:33.514Z,19.95
2018-11-13T14:16:00.944Z,20.38
2018-11-13T14:18:29.007Z,20.72
2018-11-13T14:20:56.489Z,20.96
2018-11-13T14:23:24.006Z,21.18
2018-11-13T14:25:52.627Z,21.35
2018-11-13T14:28:20.124Z,21.49
2018-11-13T14:30:48.046Z,21.52
2018-11-13T14:33:16.152Z,21.64
2018-11-13T14:35:43.636Z,21.47
2018-11-13T14:38:11.998Z,21.44
2018-11-13T14:40:43.709Z,21.21
2018-11-13T14:43:12.580Z,21.06
2018-11-13T14:45:40.261Z,20.90
2018-11-13T14:48:08.390Z,20.61
2018-11-13T14:50:36.921Z,20.94
2018-11-13T14:53:04.900Z,19.98
2018-11-13T14:55:34.457Z,19.89
2018-11-13T14:58:02.621Z,20.54
2018-11-13T15:00:32.586Z,20.82
2018-11-13T15:03:02.149Z,21.04
2018-11-13T15:05:30.109Z,21.04
2018-11-13T15:08:01.041Z,21.19
2018-11-13T15:10:35.800Z,21.40
2018-11-13T15:13:03.918Z,21.49
2018-11-13T15:15:31.357Z,21.63
2018-11-13T15:17:59.450Z,21.73
2018-11-13T15:20:26.903Z,21.66
2018-11-13T15:22:54.386Z,21.25
2018-11-13T15:25:22.371Z,20.44
2018-11-13T15:27:50.364Z,20.50
2018-11-13T15:30:25.445Z,20.48
2018-11-13T15:32:55.284Z,19.86
2018-11-13T15:35:22.917Z,20.48
2018-11-13T15:37:50.895Z,20.64
2018-11-13T15:40:20.529Z,20.49
2018-11-13T15:42:48.105Z,20.76
2018-11-13T15:45:16.425Z,20.50
2018-11-13T15:47:44.844Z,20.60
2018-11-13T15:50:16.375Z,20.01
2018-11-13T15:52:45.246Z,19.85
2018-11-13T15:55:13.437Z,19.34
2018-11-13T15:57:41.748Z,18.82
2018-11-13T16:00:21.275Z,19.51
2018-11-13T16:02:49.427Z,19.17
2018-11-13T16:05:43.070Z,19.87
2018-11-13T16:08:11.247Z,19.11
2018-11-13T16:10:39.270Z,18.15
2018-11-13T16:13:08.852Z,19.00
2018-11-13T16:15:36.408Z,18.70
2018-11-13T16:18:05.280Z,18.47
2018-11-13T16:20:32.850Z,18.16
2018-11-13T16:23:00.818Z,18.41
2018-11-13T16:25:28.941Z,18.41
2018-11-13T16:27:57.601Z,18.68
2018-11-13T16:30:26.466Z,18.72
2018-11-13T16:32:54.029Z,17.99
2018-11-13T16:35:23.156Z,18.68
2018-11-13T16:37:52.187Z,19.12
2018-11-13T16:40:21.853Z,19.50
2018-11-13T16:42:49.566Z,19.79
2018-11-13T16:45:18.194Z,19.04
2018-11-13T16:47:46.548Z,18.22
2018-11-13T16:50:19.683Z,19.14
2018-11-13T16:52:47.338Z,19.38
2018-11-13T16:55:20.289Z,18.60
2018-11-13T16:57:49.244Z,18.98
2018-11-13T17:00:18.946Z,18.28
2018-11-13T17:02:46.500Z,18.91
2018-11-13T17:05:16.477Z,19.33
2018-11-13T17:07:44.112Z,19.13
2018-11-13T17:10:16.022Z,19.31
2018-11-13T17:12:44.221Z,19.66
2018-11-13T17:15:15.303Z,19.85
2018-11-13T17:17:43.489Z,18.76
2018-11-13T17:20:11.852Z,19.03
2018-11-13T17:22:40.625Z,19.28
2018-11-13T17:25:10.169Z,19.26
2018-11-13T17:27:40.235Z,18.52
2018-11-13T17:30:16.536Z,19.05
2018-11-13T17:32:45.021Z,19.17
2018-11-13T17:35:14.150Z,18.54
2018-11-13T17:37:42.007Z,18.45
2018-11-13T17:40:13.534Z,19.06
2018-11-13T17:42:41.505Z,18.56
2018-11-13T17:45:21.051Z,18.51
2018-11-13T17:47:49.613Z,17.89
2018-11-13T17:50:21.843Z,18.20
2018-11-13T17:52:49.746Z,18.43
2018-11-13T17:55:18.669Z,18.67
2018-11-13T17:57:47.314Z,18.90
2018-11-13T18:00:19.623Z,18.68
2018-11-13T18:02:47.758Z,18.77
2018-11-13T18:05:15.706Z,18.91
2018-11-13T18:07:45.604Z,18.60
2018-11-13T18:10:13.170Z,18.37
2018-11-13T18:12:40.711Z,18.04
2018-11-13T18:15:10.466Z,18.19
2018-11-13T18:17:39.269Z,18.74
2018-11-13T18:20:10.070Z,19.13
2018-11-13T18:22:37.977Z,19.32
2018-11-13T18:25:06.560Z,19.37
2018-11-13T18:27:34.517Z,19.46
2018-11-13T18:30:02.026Z,19.55
2018-11-13T18:32:31.974Z,19.58
2018-11-13T18:34:59.787Z,19.71
2018-11-13T18:37:27.627Z,19.57
2018-11-13T18:39:55.882Z,19.57
2018-11-13T18:42:23.522Z,19.64
2018-11-13T18:44:52.351Z,19.53
2018-11-13T18:47:20.157Z,19.55
2018-11-13T18:49:47.969Z,19.67
2018-11-13T18:52:15.833Z,19.68
2018-11-13T18:54:44.140Z,19.48
2018-11-13T18:57:14.203Z,19.26
2018-11-13T18:59:41.921Z,19.47
2018-11-13T19:02:09.558Z,19.45
2018-11-13T19:04:37.271Z,19.51
2018-11-13T19:07:05.563Z,19.59
2018-11-13T19:09:34.188Z,19.65
2018-11-13T19:12:01.975Z,19.54
2018-11-13T19:14:29.682Z,19.55
2018-11-13T19:16:57.718Z,19.59
2018-11-13T19:19:25.500Z,19.48
2018-11-13T19:21:55.259Z,19.18
2018-11-13T19:24:22.857Z,18.98
2018-11-13T19:26:50.410Z,19.11
2018-11-13T19:29:18.009Z,19.06
2018-11-13T19:31:45.765Z,19.15
2018-11-13T19:34:14.270Z,19.23
2018-11-13T19:36:41.838Z,18.90
2018-11-13T19:39:10.670Z,18.96
2018-11-13T19:41:38.162Z,18.99
2018-11-13T19:44:05.615Z,18.66
2018-11-13T19:46:35.359Z,18.03
2018-11-13T19:49:03.130Z,18.15
2018-11-13T19:51:30.711Z,18.22
2018-11-13T19:53:58.295Z,18.13
2018-11-13T19:56:25.905Z,18.41
2018-11-13T19:58:54.382Z,18.07
2018-11-13T20:01:22.080Z,17.62
2018-11-13T20:03:49.601Z,18.06
2018-11-13T20:06:17.114Z,18.21
2018-11-13T20:08:46.637Z,18.15
2018-11-13T20:11:15.536Z,18.32
2018-11-13T20:13:43.123Z,18.52
2018-11-13T20:16:10.725Z,18.58
2018-11-13T20:18:38.146Z,18.59
2018-11-13T20:21:06.167Z,18.45
2018-11-13T20:23:34.637Z,18.43
2018-11-13T20:26:02.146Z,18.53
2018-11-13T20:28:29.760Z,18.55
2018-11-13T20:30:58.731Z,18.56
2018-11-13T20:33:26.442Z,18.67
2018-11-13T20:35:55.482Z,18.62
2018-11-13T20:38:22.997Z,18.67
2018-11-13T20:40:50.483Z,18.52
2018-11-13T20:43:18.128Z,18.63
2018-11-13T20:45:45.708Z,18.70
2018-11-13T20:48:14.103Z,18.71
2018-11-13T20:50:42.088Z,18.70
2018-11-13T20:53:09.710Z,18.60
2018-11-13T20:55:37.218Z,18.66
2018-11-13T20:58:05.557Z,18.66
2018-11-13T21:00:35.796Z,18.68
2018-11-13T21:03:03.961Z,18.72
2018-11-13T21:05:31.438Z,18.73
2018-11-13T21:07:59.009Z,18.68
2018-11-13T21:10:32.611Z,18.73
2018-11-13T21:13:01.305Z,18.65
2018-11-13T21:15:29.316Z,18.59
2018-11-13T21:17:56.836Z,18.58
2018-11-13T21:20:25.403Z,18.23
2018-11-13T21:22:52.487Z,17.97
2018-11-13T21:25:23.029Z,18.12
2018-11-13T21:27:54.090Z,18.13
2018-11-13T21:30:22.081Z,18.13
2018-11-13T21:32:50.338Z,18.09
2018-11-13T21:35:18.037Z,18.10
2018-11-13T21:37:47.624Z,18.14
2018-11-13T21:40:16.930Z,18.09
2018-11-13T21:42:45.940Z,18.12
2018-11-13T21:45:14.183Z,18.11
2018-11-13T21:47:41.930Z,18.16
2018-11-13T21:50:12.222Z,18.20
2018-11-13T21:52:40.105Z,18.22
2018-11-13T21:55:10.422Z,18.19
2018-11-13T21:57:37.976Z,18.14
2018-11-13T22:00:11.938Z,18.08
2018-11-13T22:02:40.918Z,18.09
2018-11-13T22:05:08.866Z,18.06
2018-11-13T22:07:36.765Z,18.05
2018-11-13T22:10:05.240Z,17.87
2018-11-13T22:12:34.240Z,17.86
2018-11-13T22:15:01.802Z,17.91
2018-11-13T22:17:29.472Z,17.88
2018-11-13T22:19:57.437Z,17.91
2018-11-13T22:22:24.642Z,17.98
2018-11-13T22:24:53.063Z,18.00
2018-11-13T22:27:20.538Z,18.01
2018-11-13T22:29:47.922Z,17.87
2018-11-13T22:32:15.489Z,17.90
2018-11-13T22:34:42.941Z,17.95
2018-11-13T22:37:12.241Z,17.87
2018-11-13T22:39:40.007Z,17.89
2018-11-13T22:42:07.461Z,17.86
2018-11-13T22:44:34.909Z,17.82
2018-11-13T22:47:02.461Z,17.85
2018-11-13T22:49:30.831Z,17.79
2018-11-13T22:51:58.382Z,17.63
2018-11-13T22:54:26.505Z,17.73
2018-11-13T22:56:54.021Z,17.75
2018-11-13T22:59:21.484Z,17.75
2018-11-13T23:01:50.369Z,17.72
2018-11-13T23:04:17.807Z,17.64
2018-11-13T23:06:45.256Z,17.69
2018-11-13T23:09:13.409Z,17.71
2018-11-13T23:11:41.101Z,17.31
2018-11-13T23:14:09.406Z,17.35
2018-11-13T23:16:38.168Z,17.47
2018-11-13T23:19:05.690Z,17.39
2018-11-13T23:21:33.157Z,17.49
2018-11-13T23:24:00.777Z,17.45
2018-11-13T23:26:30.251Z,17.50
2018-11-13T23:28:57.779Z,17.49
2018-11-13T23:31:25.288Z,17.39
2018-11-13T23:33:53.171Z,17.24
2018-11-13T23:37:54.018Z,17.37
2018-11-13T23:40:22.920Z,17.13
2018-11-13T23:42:50.967Z,17.22
2018-11-13T23:45:19.493Z,17.17
2018-11-13T23:47:47.349Z,17.17
2018-11-13T23:50:16.777Z,17.19
2018-11-13T23:52:45.505Z,17.28
2018-11-13T23:55:13.791Z,17.27
2018-11-13T23:57:41.895Z,17.32
